Time;durP1;ratioP1;P1;durP2;ratioP2;P2;SDS_P1;SDS_P2;PMS_P1;PMS_P2;Temp;Humidity;BMP_temperature;BMP_pressure;BME280_temperature;BME280_humidity;BME280_pressure;Samples;Min_cycle;Max_cycle;Signal;HPM_P1;HPM_P2
2021/09/03 00:03:37;;;;;;;7.70;3.97;;;;;;;13.15;100.00;95374.53;10325764;28;20033;-72
2021/09/03 00:08:38;;;;;;;4.50;3.80;;;;;;;13.25;100.00;95367.50;10325508;28;20050;-72
2021/09/03 00:13:38;;;;;;;10.80;4.32;;;;;;;13.04;100.00;95364.84;10325563;28;20113;-72
2021/09/03 00:18:39;;;;;;;6.63;3.90;;;;;;;12.83;100.00;95358.69;10329181;28;20034;-72
2021/09/03 00:23:39;;;;;;;7.05;3.63;;;;;;;12.77;100.00;95355.19;10333104;28;20169;-72
2021/09/03 00:28:40;;;;;;;7.23;4.77;;;;;;;12.74;100.00;95347.63;10333144;28;20026;-72
2021/09/03 00:33:40;;;;;;;5.25;3.80;;;;;;;12.70;100.00;95345.72;10333049;28;20275;-72
2021/09/03 00:38:41;;;;;;;7.30;4.23;;;;;;;12.70;100.00;95346.56;10332674;28;20033;-72
2021/09/03 00:43:42;;;;;;;9.03;4.87;;;;;;;12.63;100.00;95337.94;10332413;28;20288;-72
2021/09/03 00:48:42;;;;;;;6.88;4.38;;;;;;;12.54;100.00;95339.56;10332572;28;20026;-72
2021/09/03 00:53:43;;;;;;;6.68;4.40;;;;;;;12.48;100.00;95336.84;10332417;28;20069;-72
2021/09/03 00:58:43;;;;;;;6.72;3.95;;;;;;;12.75;100.00;95333.03;10331875;28;20506;-72
2021/09/03 01:03:44;;;;;;;5.07;3.80;;;;;;;12.79;100.00;95336.03;10332086;28;20030;-72
2021/09/03 01:08:44;;;;;;;6.03;3.50;;;;;;;12.58;100.00;95329.84;10331606;28;20417;-71
2021/09/03 01:13:44;;;;;;;6.20;4.00;;;;;;;12.55;100.00;95338.47;10331428;28;20030;-71
2021/09/03 01:18:45;;;;;;;9.90;4.93;;;;;;;12.61;100.00;95332.81;10331312;28;20301;-72
2021/09/03 01:23:46;;;;;;;16.30;4.85;;;;;;;12.77;100.00;95341.69;10331061;28;20115;-71
2021/09/03 01:28:48;;;;;;;8.38;4.97;;;;;;;12.88;100.00;95322.78;10330241;28;20466;-72
2021/09/03 01:33:49;;;;;;;5.38;4.10;;;;;;;12.91;100.00;95316.88;10330650;28;20036;-71
2021/09/03 01:38:49;;;;;;;7.85;4.53;;;;;;;12.85;100.00;95302.59;10330661;28;20081;-71
2021/09/03 01:43:50;;;;;;;9.80;4.90;;;;;;;12.85;100.00;95302.59;10328990;28;20084;-71
2021/09/03 01:48:51;;;;;;;8.30;4.43;;;;;;;12.78;100.00;95307.44;10330231;28;20545;-71
2021/09/03 01:53:52;;;;;;;14.77;5.13;;;;;;;12.63;100.00;95313.66;10329904;28;20038;-71
2021/09/03 01:58:52;;;;;;;8.60;4.53;;;;;;;12.53;100.00;95306.41;10328533;28;20031;-71
2021/09/03 02:03:54;;;;;;;6.93;4.18;;;;;;;12.53;100.00;95303.72;10328254;28;20030;-71
2021/09/03 02:08:54;;;;;;;7.07;4.35;;;;;;;12.58;100.00;95292.91;10328295;28;20047;-71
2021/09/03 02:13:55;;;;;;;13.07;5.00;;;;;;;12.39;100.00;95302.63;10328251;28;20034;-71
2021/09/03 02:18:55;;;;;;;9.70;4.38;;;;;;;12.44;100.00;95292.63;10328786;28;20293;-71
2021/09/03 02:23:55;;;;;;;7.43;4.55;;;;;;;12.48;100.00;95282.13;10329001;28;20387;-71
2021/09/03 02:28:56;;;;;;;7.30;4.57;;;;;;;12.47;100.00;95277.81;10328448;28;20034;-71
2021/09/03 02:33:56;;;;;;;13.60;5.87;;;;;;;12.38;100.00;95266.78;10328324;28;20053;-71
2021/09/03 02:38:57;;;;;;;6.97;4.55;;;;;;;12.30;100.00;95272.72;10327674;28;20293;-72
2021/09/03 02:43:57;;;;;;;8.57;5.23;;;;;;;12.26;100.00;95269.75;10327777;28;20041;-72
2021/09/03 02:48:57;;;;;;;7.93;4.25;;;;;;;12.19;100.00;95265.72;10327734;28;20285;-72
2021/09/03 02:53:58;;;;;;;14.20;5.57;;;;;;;12.20;100.00;95264.66;10327654;28;20489;-72
2021/09/03 02:58:58;;;;;;;6.25;4.45;;;;;;;12.20;100.00;95262.75;10327587;28;20586;-72
2021/09/03 03:03:59;;;;;;;5.80;4.50;;;;;;;12.10;100.00;95260.88;10327030;28;20026;-72
2021/09/03 03:08:59;;;;;;;13.93;5.65;;;;;;;12.01;100.00;95267.84;10327284;28;20304;-72
2021/09/03 03:14:16;;;;;;;12.57;4.23;;;;;;;11.95;100.00;95275.13;10326722;28;20085;-72
2021/09/03 03:19:16;;;;;;;8.88;5.38;;;;;;;11.88;100.00;95279.16;10324979;28;20034;-72
2021/09/03 03:24:17;;;;;;;7.87;4.90;;;;;;;11.66;100.00;95280.16;10325424;28;20041;-72
2021/09/03 03:29:17;;;;;;;12.13;5.03;;;;;;;11.65;100.00;95283.94;10325388;28;20038;-72
2021/09/03 03:34:17;;;;;;;10.53;5.47;;;;;;;11.63;100.00;95280.72;10326555;28;20371;-72
2021/09/03 03:39:18;;;;;;;8.40;5.13;;;;;;;11.60;100.00;95286.63;10326116;28;20293;-72
2021/09/03 03:44:19;;;;;;;10.48;5.15;;;;;;;11.56;100.00;95299.00;10326375;28;20041;-72
2021/09/03 03:49:20;;;;;;;12.85;6.07;;;;;;;11.26;100.00;95304.03;10326181;28;20174;-71
2021/09/03 03:54:20;;;;;;;14.47;8.93;;;;;;;11.17;100.00;95307.47;10333053;28;20045;-71
2021/09/03 03:59:20;;;;;;;10.30;6.73;;;;;;;11.24;100.00;95311.53;10333963;28;20285;-71
2021/09/03 04:04:21;;;;;;;16.40;6.60;;;;;;;11.23;100.00;95317.19;10332518;28;20124;-71
2021/09/03 04:09:21;;;;;;;11.50;7.03;;;;;;;11.30;100.00;95331.19;10332934;28;20127;-71
2021/09/03 04:14:22;;;;;;;19.20;6.90;;;;;;;11.40;100.00;95331.25;10332995;28;20328;-71
2021/09/03 04:19:22;;;;;;;8.80;5.60;;;;;;;11.39;100.00;95336.91;10333325;28;20041;-72
2021/09/03 04:24:22;;;;;;;16.20;7.27;;;;;;;11.32;100.00;95331.75;10333171;28;20497;-70
2021/09/03 04:29:23;;;;;;;16.20;8.43;;;;;;;11.32;100.00;95330.97;10332782;28;20292;-72
2021/09/03 04:34:23;;;;;;;14.75;7.07;;;;;;;11.46;100.00;95329.38;10332850;28;20034;-72
2021/09/03 04:39:24;;;;;;;18.70;7.13;;;;;;;11.60;100.00;95322.44;10332555;28;20042;-72
2021/09/03 04:44:24;;;;;;;16.65;7.35;;;;;;;11.53;100.00;95321.06;10330912;28;20266;-72
2021/09/03 04:49:25;;;;;;;15.45;7.47;;;;;;;11.64;100.00;95328.09;10332121;28;20462;-73
2021/09/03 04:54:25;;;;;;;18.95;7.93;;;;;;;11.89;100.00;95329.22;10330767;28;20030;-71
2021/09/03 04:59:25;;;;;;;18.57;7.60;;;;;;;12.18;100.00;95315.28;10331557;28;20070;-73
2021/09/03 05:04:26;;;;;;;26.87;8.10;;;;;;;12.58;100.00;95313.66;10330612;28;20309;-73
2021/09/03 05:09:26;;;;;;;14.23;6.20;;;;;;;12.66;100.00;95313.13;10330863;28;20560;-71
2021/09/03 05:14:26;;;;;;;9.03;5.90;;;;;;;12.88;100.00;95312.00;10330981;28;20353;-71
2021/09/03 05:19:27;;;;;;;12.63;5.45;;;;;;;13.26;100.00;95312.44;10329500;28;20030;-73
2021/09/03 05:24:27;;;;;;;8.60;4.17;;;;;;;13.47;100.00;95315.91;10330460;28;20038;-71
2021/09/03 05:29:27;;;;;;;7.13;4.93;;;;;;;13.61;100.00;95325.00;10330210;28;20427;-71
2021/09/03 05:34:28;;;;;;;8.37;4.77;;;;;;;14.08;100.00;95325.56;10329624;28;20045;-71
2021/09/03 05:39:28;;;;;;;5.70;3.97;;;;;;;14.48;100.00;95323.63;10329979;28;20085;-71
2021/09/03 05:44:29;;;;;;;10.77;4.50;;;;;;;14.83;100.00;95329.84;10329944;28;20839;-73
2021/09/03 05:49:29;;;;;;;8.57;5.37;;;;;;;15.47;100.00;95324.25;10329519;28;20388;-71
2021/09/03 05:54:29;;;;;;;7.77;4.00;;;;;;;15.76;100.00;95325.28;10329206;28;20211;-71
2021/09/03 05:59:30;;;;;;;6.17;4.10;;;;;;;16.25;100.00;95325.97;10327602;28;20300;-71
2021/09/03 06:04:30;;;;;;;9.38;3.97;;;;;;;17.05;96.47;95330.38;10328456;28;20969;-71
2021/09/03 06:09:31;;;;;;;5.33;3.30;;;;;;;17.55;90.39;95318.84;10328340;28;20062;-71
2021/09/03 06:14:31;;;;;;;8.97;3.43;;;;;;;18.30;83.53;95324.03;10327830;28;20070;-71
2021/09/03 06:19:31;;;;;;;6.43;3.80;;;;;;;19.64;77.84;95326.88;10328204;28;20289;-71
2021/09/03 06:24:32;;;;;;;10.13;3.17;;;;;;;19.45;70.02;95327.16;10327796;28;20027;-71
2021/09/03 06:34:43;;;;;;;9.23;4.73;;;;;;;19.20;79.57;95320.47;10327742;28;20038;-71
2021/09/03 06:39:44;;;;;;;8.63;3.28;;;;;;;19.45;77.52;95320.88;10328099;28;20116;-71
2021/09/03 06:44:44;;;;;;;7.60;4.03;;;;;;;20.14;70.36;95314.00;10327488;28;20050;-71
2021/09/03 06:49:45;;;;;;;7.28;3.75;;;;;;;20.79;63.34;95306.78;10327569;28;20022;-72
2021/09/03 06:54:45;;;;;;;7.85;4.10;;;;;;;21.28;61.13;95317.41;10327978;28;20030;-72
2021/09/03 06:59:46;;;;;;;9.00;4.33;;;;;;;21.47;58.08;95316.19;10328619;28;20030;-71
2021/09/03 07:04:46;;;;;;;9.17;4.00;;;;;;;21.01;57.43;95315.88;10328164;28;20289;-71
2021/09/03 07:09:47;;;;;;;11.98;4.13;;;;;;;20.82;61.29;95327.97;10328158;28;20408;-72
2021/09/03 07:14:48;;;;;;;13.55;4.22;;;;;;;21.81;55.71;95325.38;10328224;28;20050;-72
2021/09/03 07:19:49;;;;;;;6.45;4.00;;;;;;;24.49;47.25;95300.41;10327804;28;20030;-72
2021/09/03 07:24:49;;;;;;;6.73;3.90;;;;;;;26.92;40.18;95300.38;10328043;28;20030;-72
2021/09/03 07:29:49;;;;;;;10.23;3.47;;;;;;;27.59;38.06;95297.25;10327549;28;20069;-72
2021/09/03 07:34:50;;;;;;;6.13;3.50;;;;;;;28.57;35.05;95298.69;10327647;28;20034;-72
2021/09/03 07:39:50;;;;;;;9.33;3.67;;;;;;;28.72;34.95;95302.44;10327350;28;20038;-72
2021/09/03 07:44:51;;;;;;;7.43;3.47;;;;;;;29.26;33.84;95308.59;10327319;28;20027;-72
2021/09/03 07:49:51;;;;;;;6.97;3.87;;;;;;;30.53;32.90;95302.84;10327204;28;20026;-72
2021/09/03 07:54:51;;;;;;;8.33;3.93;;;;;;;31.81;30.97;95297.22;10326767;28;20323;-72
2021/09/03 07:59:52;;;;;;;4.77;2.90;;;;;;;32.41;28.93;95294.78;10327057;28;20092;-72
2021/09/03 08:04:53;;;;;;;6.00;2.90;;;;;;;31.76;29.46;95278.97;10327177;28;20042;-72
2021/09/03 08:09:54;;;;;;;8.52;3.60;;;;;;;32.52;29.45;95276.84;10326207;28;20098;-72
2021/09/03 08:14:54;;;;;;;9.25;3.03;;;;;;;32.63;29.07;95262.88;10325654;28;20068;-72
2021/09/03 08:19:55;;;;;;;4.60;2.70;;;;;;;32.33;27.50;95253.06;10326680;28;20109;-72
2021/09/03 08:24:55;;;;;;;8.77;3.43;;;;;;;32.66;29.12;95250.16;10326406;28;20471;-72
2021/09/03 08:29:55;;;;;;;6.90;3.27;;;;;;;34.13;26.34;95245.53;10326496;28;20037;-72
2021/09/03 08:34:56;;;;;;;4.60;3.20;;;;;;;34.11;26.24;95247.19;10326503;28;20038;-72
2021/09/03 08:39:59;;;;;;;7.70;2.97;;;;;;;33.08;26.50;95233.66;10330241;28;20030;-72
2021/09/03 08:45:00;;;;;;;7.18;3.05;;;;;;;32.96;26.19;95216.22;10333260;28;20033;-72
2021/09/03 08:50:00;;;;;;;6.05;3.25;;;;;;;32.96;26.02;95216.22;10333564;28;20490;-72
2021/09/03 08:55:01;;;;;;;6.05;3.22;;;;;;;31.81;28.16;95219.41;10333279;28;20034;-72
2021/09/03 09:00:20;;;;;;;5.30;3.15;;;;;;;29.90;30.75;95211.38;10333560;28;20117;-72
2021/09/03 09:05:21;;;;;;;6.20;3.90;;;;;;;29.27;33.00;95210.53;10333084;28;20038;-72
2021/09/03 09:10:24;;;;;;;11.00;4.43;;;;;;;30.33;30.93;95208.81;10333164;28;20050;-72
2021/09/03 09:15:25;;;;;;;14.85;3.75;;;;;;;30.30;30.45;95212.38;10332777;28;20490;-72
2021/09/03 09:20:25;;;;;;;7.43;3.57;;;;;;;31.03;29.92;95205.09;10332555;28;20038;-72
2021/09/03 09:25:32;;;;;;;10.77;3.83;;;;;;;30.06;30.65;95210.28;10332678;28;20270;-72
2021/09/03 09:30:32;;;;;;;;;;;;;;;28.50;31.60;95210.13;10332699;28;20033;-72
2021/09/03 09:35:42;;;;;;;6.55;4.00;;;;;;;28.09;34.28;95203.31;10332019;28;19909;-72
2021/09/03 09:40:50;;;;;;;12.10;4.32;;;;;;;27.67;35.96;95203.47;10331922;28;20026;-71
2021/09/03 09:46:16;;;;;;;11.20;4.60;;;;;;;28.44;33.75;95196.63;10331540;28;20033;-72
2021/09/03 09:51:29;;;;;;;9.70;4.43;;;;;;;28.78;33.16;95196.59;10331263;28;20109;-71
2021/09/03 09:56:35;;;;;;;8.48;4.35;;;;;;;26.31;36.05;95191.66;10330791;28;20034;-71
2021/09/03 10:01:37;;;;;;;9.25;4.35;;;;;;;28.69;33.92;95187.03;10330471;28;20069;-71
2021/09/03 10:06:40;;;;;;;9.43;4.43;;;;;;;32.00;30.02;95176.47;10329490;28;20104;-71
2021/09/03 10:11:43;;;;;;;6.90;3.47;;;;;;;33.09;27.82;95168.38;10330380;28;20061;-71
2021/09/03 10:16:48;;;;;;;6.72;3.00;;;;;;;34.62;25.18;95158.09;10329910;28;20026;-71
2021/09/03 10:21:49;;;;;;;5.63;2.88;;;;;;;35.76;23.51;95143.53;10329914;28;20501;-71
2021/09/03 10:26:53;;;;;;;5.82;2.95;;;;;;;35.72;24.82;95156.78;10329763;28;20145;-71
2021/09/03 10:32:03;;;;;;;6.80;3.13;;;;;;;34.96;24.24;95149.66;10329727;28;20088;-71
2021/09/03 10:37:03;;;;;;;7.38;3.42;;;;;;;34.90;23.76;95143.75;10329486;28;20066;-72
2021/09/03 10:42:03;;;;;;;10.27;4.00;;;;;;;35.48;23.52;95144.84;10329175;28;20137;-71
2021/09/03 10:47:30;;;;;;;5.37;2.83;;;;;;;36.72;22.87;95131.63;10328506;28;20038;-72
2021/09/03 10:52:30;;;;;;;5.68;3.00;;;;;;;37.24;21.65;95121.59;10328849;28;20052;-72
2021/09/03 10:57:31;;;;;;;5.17;2.87;;;;;;;36.37;22.53;95125.59;10328523;28;20045;-72
2021/09/03 11:02:31;;;;;;;5.07;3.53;;;;;;;36.62;21.46;95121.47;10328063;28;20529;-72
2021/09/03 11:07:44;;;;;;;7.67;2.87;;;;;;;36.59;22.23;95108.31;10328514;28;20529;-72
2021/09/03 11:12:50;;;;;;;5.30;2.83;;;;;;;36.00;22.77;95115.53;10328469;28;20050;-72
2021/09/03 11:17:51;;;;;;;4.53;2.67;;;;;;;33.29;24.20;95110.94;10327932;28;20108;-71
2021/09/03 11:23:05;;;;;;;6.80;3.08;;;;;;;30.92;28.08;95121.78;10327833;28;20048;-71
2021/09/03 11:28:05;;;;;;;5.35;3.20;;;;;;;27.95;30.90;95114.66;10327796;28;20098;-71
2021/09/03 11:33:06;;;;;;;10.27;4.38;;;;;;;26.86;33.23;95117.06;10327343;28;20084;-71
2021/09/03 11:38:13;;;;;;;4.30;3.30;;;;;;;26.84;34.84;95106.38;10327253;28;20033;-71
2021/09/03 11:43:19;;;;;;;8.15;3.88;;;;;;;25.66;35.13;95103.00;10327616;28;20038;-72
2021/09/03 11:48:19;;;;;;;10.68;3.80;;;;;;;25.95;36.37;95089.78;10327221;28;20441;-71
2021/09/03 11:53:25;;;;;;;7.85;3.78;;;;;;;26.06;36.60;95079.81;10327270;28;20034;-71
2021/09/03 11:58:26;;;;;;;6.35;3.78;;;;;;;25.26;39.40;95068.31;10326780;28;20112;-71
2021/09/03 12:03:33;;;;;;;10.93;3.70;;;;;;;25.06;37.91;95071.00;10327167;28;20516;-71
2021/09/03 12:08:35;;;;;;;7.03;4.07;;;;;;;23.86;40.23;95065.59;10326639;28;20050;-72
2021/09/03 12:13:44;;;;;;;12.88;3.83;;;;;;;24.21;42.33;95057.56;10328917;28;20074;-71
2021/09/03 12:18:50;;;;;;;10.32;3.58;;;;;;;24.96;39.87;95057.81;10334591;28;20549;-71
2021/09/03 12:23:53;;;;;;;7.07;3.85;;;;;;;25.16;39.98;95042.16;10334868;28;20391;-72
2021/09/03 12:28:55;;;;;;;9.48;4.57;;;;;;;24.90;37.37;95034.50;10334398;28;20030;-72
2021/09/03 12:34:06;;;;;;;4.75;3.45;;;;;;;24.83;37.75;95035.13;10334106;28;20409;-72
2021/09/03 12:39:12;;;;;;;7.22;3.75;;;;;;;24.44;38.71;95032.22;10333758;28;20031;-72
2021/09/03 12:44:23;;;;;;;14.77;4.15;;;;;;;24.57;40.03;95035.66;10333880;28;20030;-71
2021/09/03 12:49:28;;;;;;;4.68;3.25;;;;;;;24.45;39.75;95013.78;10333707;28;20629;-71
2021/09/03 12:54:30;;;;;;;10.48;3.60;;;;;;;24.09;38.92;95013.69;10333051;28;20387;-72
2021/09/03 12:59:31;;;;;;;7.32;4.30;;;;;;;23.84;40.73;95013.81;10333401;28;20129;-71
2021/09/03 13:04:31;;;;;;;11.27;4.30;;;;;;;23.59;39.75;95015.88;10333179;28;20398;-71
2021/09/03 13:09:32;;;;;;;7.40;4.50;;;;;;;23.02;41.57;95018.56;10332644;28;20434;-71
2021/09/03 13:14:32;;;;;;;4.63;3.28;;;;;;;23.11;42.24;95010.19;10332836;28;20532;-71
2021/09/03 13:19:33;;;;;;;8.03;3.90;;;;;;;23.12;42.99;95003.59;10332451;28;20030;-71
2021/09/03 13:24:33;;;;;;;10.00;3.95;;;;;;;23.09;42.77;94995.22;10331421;28;20504;-71
2021/09/03 13:29:34;;;;;;;8.93;3.90;;;;;;;23.17;42.99;94986.09;10332076;28;20030;-71
2021/09/03 13:34:34;;;;;;;6.90;3.47;;;;;;;22.96;40.94;94991.72;10332219;28;20037;-72
2021/09/03 13:39:34;;;;;;;6.07;3.50;;;;;;;22.88;42.26;94982.47;10331709;28;20297;-72
2021/09/03 13:44:35;;;;;;;10.30;3.60;;;;;;;22.95;43.81;94974.47;10330438;28;20030;-72
2021/09/03 13:49:35;;;;;;;12.53;3.83;;;;;;;22.98;42.93;94956.53;10329339;28;20517;-72
2021/09/03 13:54:35;;;;;;;12.63;4.30;;;;;;;23.11;43.18;94954.53;10327981;28;20034;-71
2021/09/03 13:59:36;;;;;;;5.40;3.43;;;;;;;22.79;47.35;94955.22;10327010;28;20034;-71
2021/09/03 14:04:36;;;;;;;8.33;3.47;;;;;;;22.68;48.35;94954.91;10329685;28;20061;-71
2021/09/03 14:09:37;;;;;;;7.27;3.73;;;;;;;22.67;47.88;94947.03;10330632;28;20306;-72
2021/09/03 14:14:38;;;;;;;11.02;4.97;;;;;;;22.70;48.77;94947.16;10330112;28;20026;-71
2021/09/03 14:19:40;;;;;;;7.70;3.95;;;;;;;22.41;46.49;94933.69;10343656;28;20029;-71
2021/09/03 14:24:41;;;;;;;4.97;3.40;;;;;;;22.36;46.19;94926.53;10329866;28;20056;-71
2021/09/03 14:29:41;;;;;;;5.50;3.45;;;;;;;22.16;44.43;94918.06;10329353;28;20027;-72
2021/09/03 14:34:43;;;;;;;5.13;3.55;;;;;;;22.34;43.47;94915.94;10329192;28;20030;-71
2021/09/03 14:39:43;;;;;;;8.10;3.20;;;;;;;22.18;46.10;94907.56;10329025;28;20034;-71
2021/09/03 14:44:44;;;;;;;8.55;3.63;;;;;;;22.21;44.65;94914.28;10328689;28;20030;-72
2021/09/03 14:49:44;;;;;;;8.57;3.60;;;;;;;22.30;43.34;94906.78;10329046;28;20061;-71
2021/09/03 14:54:44;;;;;;;6.63;3.83;;;;;;;22.39;45.16;94903.16;10328838;28;20026;-72
2021/09/03 14:59:45;;;;;;;7.80;3.20;;;;;;;22.50;44.58;94898.78;10327141;28;20121;-72
2021/09/03 15:04:45;;;;;;;10.80;3.90;;;;;;;22.31;45.08;94894.69;10328502;28;20034;-72
2021/09/03 15:09:47;;;;;;;6.70;3.23;;;;;;;22.23;43.64;94895.59;10327700;28;20053;-71
2021/09/03 15:14:48;;;;;;;7.93;3.35;;;;;;;22.10;45.60;94894.00;10327758;28;20037;-71
2021/09/03 15:19:49;;;;;;;7.40;3.97;;;;;;;21.79;45.66;94885.22;10327772;28;20379;-72
2021/09/03 15:24:50;;;;;;;8.43;4.70;;;;;;;21.83;44.71;94893.56;10327893;28;20113;-71
2021/09/03 15:29:50;;;;;;;6.27;3.23;;;;;;;21.77;45.16;94882.03;10327455;28;20041;-71
2021/09/03 15:34:51;;;;;;;7.10;4.20;;;;;;;21.62;46.86;94885.44;10327832;28;20061;-71
2021/09/03 15:39:51;;;;;;;9.07;3.45;;;;;;;21.50;45.37;94887.00;10325712;28;20041;-72
2021/09/03 15:44:52;;;;;;;6.43;3.70;;;;;;;21.23;45.88;94880.22;10325959;28;20088;-72
2021/09/03 15:49:52;;;;;;;10.20;3.23;;;;;;;21.10;46.75;94873.91;10326791;28;20034;-72
2021/09/03 15:54:52;;;;;;;7.40;3.37;;;;;;;21.17;47.01;94867.91;10325657;28;20041;-71
2021/09/03 15:59:53;;;;;;;6.50;4.00;;;;;;;21.24;49.31;94868.16;10326905;28;20034;-72
2021/09/03 16:04:53;;;;;;;8.93;3.80;;;;;;;21.23;47.50;94876.69;10326834;28;20038;-73
2021/09/03 16:09:53;;;;;;;5.03;3.77;;;;;;;21.30;48.35;94872.25;10326649;28;20541;-72
2021/09/03 16:14:57;;;;;;;7.90;3.77;;;;;;;21.29;48.07;94873.41;10326645;28;20030;-72
2021/09/03 16:19:58;;;;;;;11.35;4.22;;;;;;;21.37;48.23;94873.66;10326175;28;20034;-73
2021/09/03 16:24:58;;;;;;;13.53;4.17;;;;;;;21.30;48.34;94872.25;10326207;28;20026;-71
2021/09/03 16:29:58;;;;;;;8.48;3.42;;;;;;;21.21;49.86;94873.47;10324206;28;20489;-71
2021/09/03 16:35:01;;;;;;;11.17;4.27;;;;;;;21.26;57.62;94871.31;10325824;28;20030;-72
2021/09/03 16:40:04;;;;;;;10.55;5.20;;;;;;;21.07;60.22;94873.78;10326115;28;20296;-72
2021/09/03 16:45:05;;;;;;;8.48;4.28;;;;;;;20.73;71.16;94881.97;10324868;28;20038;-71
2021/09/03 16:50:07;;;;;;;11.05;6.03;;;;;;;20.40;78.57;94876.41;10326127;28;20525;-72
2021/09/03 16:55:08;;;;;;;9.43;4.60;;;;;;;20.13;76.36;94875.78;10326029;28;20483;-72
2021/09/03 17:00:09;;;;;;;12.45;5.53;;;;;;;19.88;87.92;94867.41;10328119;28;20513;-72
2021/09/03 17:05:09;;;;;;;9.45;5.45;;;;;;;19.74;84.21;94877.72;10333481;28;20038;-72
2021/09/03 17:10:10;;;;;;;10.82;5.35;;;;;;;19.56;85.80;94879.72;10332380;28;20433;-72
2021/09/03 17:15:11;;;;;;;9.85;5.47;;;;;;;19.32;85.69;94881.09;10332760;28;20038;-72
2021/09/03 17:20:12;;;;;;;18.77;5.65;;;;;;;19.32;88.77;94893.94;10314758;28;20042;-72
2021/09/03 17:25:12;;;;;;;16.52;5.60;;;;;;;19.10;93.38;94898.44;10292222;28;20027;-72
2021/09/03 17:30:13;;;;;;;7.83;4.90;;;;;;;19.13;96.01;94898.63;10290721;28;20047;-72
2021/09/03 17:35:13;;;;;;;10.85;5.43;;;;;;;18.88;94.63;94911.16;10291752;28;20053;-71
2021/09/03 17:40:14;;;;;;;15.93;7.05;;;;;;;18.57;96.52;94912.09;10291583;28;20082;-72
2021/09/03 17:45:15;;;;;;;13.05;5.30;;;;;;;18.42;94.15;94916.06;10291489;28;20146;-71
2021/09/03 17:50:15;;;;;;;8.00;4.47;;;;;;;18.35;92.65;94923.09;10291231;28;20105;-71
2021/09/03 17:55:16;;;;;;;8.27;5.10;;;;;;;18.23;96.66;94932.69;10290895;28;20027;-71
2021/09/03 18:00:18;;;;;;;14.45;6.03;;;;;;;18.17;100.00;94941.31;10290545;28;20030;-71
2021/09/03 18:05:19;;;;;;;12.75;6.95;;;;;;;18.04;99.30;94932.16;10290550;28;20054;-71
2021/09/03 18:10:20;;;;;;;10.47;5.27;;;;;;;17.79;97.98;94947.25;10290229;28;20055;-71
2021/09/03 18:15:20;;;;;;;18.30;5.88;;;;;;;17.69;99.56;94956.47;10290571;28;20097;-71
2021/09/03 18:20:20;;;;;;;9.10;5.85;;;;;;;17.59;96.00;94963.78;10289823;28;20039;-71
2021/09/03 18:25:21;;;;;;;9.82;5.95;;;;;;;17.67;98.00;94961.44;10290159;28;20487;-71
2021/09/03 18:30:21;;;;;;;14.60;6.18;;;;;;;17.48;100.00;94967.06;10289937;28;20376;-71
2021/09/03 18:35:23;;;;;;;11.00;7.07;;;;;;;17.47;100.00;94970.91;10289203;28;20038;-71
2021/09/03 18:40:23;;;;;;;12.00;6.22;;;;;;;17.47;99.23;94976.34;10289388;28;20345;-71
2021/09/03 18:45:24;;;;;;;10.63;6.00;;;;;;;17.34;100.00;94981.53;10288963;28;20494;-71
2021/09/03 18:50:26;;;;;;;13.52;6.25;;;;;;;17.15;100.00;94995.31;10287949;28;20274;-71
2021/09/03 18:55:26;;;;;;;9.18;4.82;;;;;;;16.95;100.00;94991.16;10287346;28;20089;-71
2021/09/03 19:00:27;;;;;;;9.18;5.32;;;;;;;16.85;100.00;94989.44;10269678;28;20035;-71
2021/09/03 19:05:27;;;;;;;9.23;5.50;;;;;;;16.68;100.00;94981.19;10286884;28;20042;-72
2021/09/03 19:10:28;;;;;;;12.95;5.13;;;;;;;16.70;100.00;94985.19;10286605;28;20055;-71
2021/09/03 19:15:29;;;;;;;8.67;5.53;;;;;;;16.70;100.00;94978.94;10285170;28;20549;-72
2021/09/03 19:20:30;;;;;;;15.00;6.15;;;;;;;16.76;100.00;94983.16;10284987;28;20290;-72
2021/09/03 19:25:31;;;;;;;12.43;6.10;;;;;;;16.75;100.00;94979.63;10284721;28;20480;-72
2021/09/03 19:30:32;;;;;;;17.27;7.18;;;;;;;16.60;100.00;94973.75;10284751;28;20027;-72
2021/09/03 19:35:33;;;;;;;14.10;7.03;;;;;;;16.64;100.00;94975.53;10285974;28;20035;-72
2021/09/03 19:40:34;;;;;;;10.25;4.78;;;;;;;16.58;100.00;94972.13;10285792;28;20039;-72
2021/09/03 19:45:35;;;;;;;8.80;5.22;;;;;;;16.61;100.00;94964.50;10285756;28;20030;-72
2021/09/03 19:50:35;;;;;;;12.38;6.13;;;;;;;16.55;100.00;94963.81;10285403;28;20031;-72
2021/09/03 19:55:35;;;;;;;17.10;6.43;;;;;;;16.47;100.00;94959.13;10285727;28;20039;-71
2021/09/03 20:00:36;;;;;;;13.97;6.77;;;;;;;16.41;100.00;94955.72;10285619;28;20035;-71
2021/09/03 20:05:37;;;;;;;11.20;6.68;;;;;;;16.26;100.00;94950.63;10285758;28;20440;-71
2021/09/03 20:10:37;;;;;;;10.73;6.05;;;;;;;16.23;100.00;94949.31;10286086;28;20133;-71
2021/09/03 20:15:38;;;;;;;11.80;4.93;;;;;;;16.14;100.00;94954.63;10285276;28;20061;-71
2021/09/03 20:20:39;;;;;;;12.93;7.20;;;;;;;15.96;100.00;94945.50;10285301;28;20336;-71
2021/09/03 20:25:45;;;;;;;11.63;5.27;;;;;;;15.88;100.00;94944.31;10283805;28;20518;-71
2021/09/03 20:30:46;;;;;;;8.38;5.07;;;;;;;15.86;100.00;94943.78;10285229;28;20065;-71
2021/09/03 20:35:46;;;;;;;10.65;5.65;;;;;;;15.73;100.00;94939.97;10288713;28;20114;-71
2021/09/03 20:40:47;;;;;;;9.13;4.97;;;;;;;15.83;100.00;94936.28;10292430;28;20414;-71
2021/09/03 20:45:47;;;;;;;10.90;5.63;;;;;;;15.80;100.00;94958.56;10292332;28;20123;-71
2021/09/03 20:50:47;;;;;;;12.20;5.67;;;;;;;15.79;100.00;94956.94;10291776;28;20324;-71
2021/09/03 20:55:48;;;;;;;10.57;5.38;;;;;;;15.67;100.00;94957.44;10292187;28;20282;-71
2021/09/03 21:00:48;;;;;;;9.88;6.28;;;;;;;15.55;100.00;94957.91;10291504;28;20126;-71
2021/09/03 21:05:49;;;;;;;7.50;5.00;;;;;;;15.50;100.00;94966.16;10290974;28;20074;-71
2021/09/03 21:10:49;;;;;;;8.47;5.30;;;;;;;15.45;100.00;94955.41;10290541;28;20278;-71
2021/09/03 21:15:49;;;;;;;11.23;6.47;;;;;;;15.33;100.00;94949.66;10290728;28;20046;-71
2021/09/03 21:20:51;;;;;;;12.17;5.10;;;;;;;15.27;100.00;94970.59;10289880;28;20030;-71
2021/09/03 21:25:51;;;;;;;8.15;5.13;;;;;;;15.14;100.00;94953.22;10290617;28;20033;-71
2021/09/03 21:30:51;;;;;;;9.17;5.57;;;;;;;15.06;100.00;94945.78;10291047;28;20031;-71
2021/09/03 21:35:52;;;;;;;8.23;5.53;;;;;;;15.07;100.00;94950.09;10290906;28;20030;-71
2021/09/03 21:40:52;;;;;;;10.87;5.87;;;;;;;14.85;100.00;94948.00;10288946;28;20038;-71
2021/09/03 21:45:52;;;;;;;7.37;4.63;;;;;;;14.89;100.00;94954.44;10290056;28;20026;-71
2021/09/03 21:50:53;;;;;;;10.70;5.40;;;;;;;14.89;100.00;94945.50;10289610;28;20027;-71
2021/09/03 21:55:53;;;;;;;12.37;5.40;;;;;;;14.80;100.00;94958.91;10288579;28;20053;-71
2021/09/03 22:00:53;;;;;;;10.43;5.60;;;;;;;14.68;100.00;94951.25;10288624;28;20386;-71
2021/09/03 22:05:54;;;;;;;7.57;5.03;;;;;;;14.66;100.00;94945.31;10289740;28;20043;-71
2021/09/03 22:10:54;;;;;;;10.77;5.43;;;;;;;14.59;100.00;94963.78;10289636;28;20041;-71
2021/09/03 22:15:55;;;;;;;10.20;5.75;;;;;;;14.50;100.00;94964.44;10289180;28;20844;-71
2021/09/03 22:20:55;;;;;;;9.00;5.43;;;;;;;14.31;100.00;94967.13;10289081;28;20035;-71
2021/09/03 22:25:55;;;;;;;7.23;4.97;;;;;;;14.20;100.00;94962.94;10288859;28;20309;-71
2021/09/03 22:30:56;;;;;;;12.77;5.77;;;;;;;14.25;100.00;94954.00;10287004;28;20022;-71
2021/09/03 22:35:56;;;;;;;10.52;5.05;;;;;;;14.19;100.00;94951.34;10288645;28;20274;-71
2021/09/03 22:40:56;;;;;;;8.17;5.37;;;;;;;13.99;100.00;94965.91;10288338;28;20027;-71
2021/09/03 22:45:57;;;;;;;7.93;4.90;;;;;;;13.95;100.00;94956.78;10288041;28;20765;-71
2021/09/03 22:50:59;;;;;;;8.97;4.93;;;;;;;13.92;100.00;94945.75;10288119;28;20035;-71
2021/09/03 22:55:59;;;;;;;7.05;4.55;;;;;;;13.84;100.00;94933.66;10287213;28;20163;-71
2021/09/03 23:00:59;;;;;;;7.27;4.87;;;;;;;13.71;100.00;94945.19;10287102;28;20170;-71
2021/09/03 23:06:00;;;;;;;7.87;5.27;;;;;;;13.72;100.00;94953.00;10287687;28;20390;-71
2021/09/03 23:11:00;;;;;;;7.90;5.57;;;;;;;13.61;100.00;94952.31;10287372;28;20110;-71
2021/09/03 23:16:01;;;;;;;9.33;5.13;;;;;;;13.62;100.00;94934.22;10287162;28;20182;-71